Time;durP1;ratioP1;P1;durP2;ratioP2;P2;SDS_P1;SDS_P2;PMS_P1;PMS_P2;Temp;Humidity;BMP_temperature;BMP_pressure;BME280_temperature;BME280_humidity;BME280_pressure;Samples;Min_cycle;Max_cycle;Signal;HPM_P1;HPM_P2
2022/10/30 00:00:58;;;;;;;;;;;18.50;63.40;;;;;;4945549;28;19972;-87
2022/10/30 00:03:23;;;;;;;;;;;18.50;64.10;;;;;;4958102;28;19915;-88
2022/10/30 00:05:50;;;;;;;;;;;18.50;63.80;;;;;;4948851;28;19955;-87
2022/10/30 00:08:17;;;;;;;;;;;18.60;63.20;;;;;;4947204;28;19918;-87
2022/10/30 00:10:43;;;;;;;;;;;18.50;63.70;;;;;;4956042;28;19914;-87
2022/10/30 00:13:08;;;;;;;;;;;18.50;64.80;;;;;;4967935;28;19998;-87
2022/10/30 00:15:36;;;;;;;;;;;18.50;64.60;;;;;;4945196;28;19920;-87
2022/10/30 00:18:02;;;;;;;;;;;18.40;63.50;;;;;;4958822;28;20301;-87
2022/10/30 00:20:27;;;;;;;;;;;18.40;63.60;;;;;;4947379;28;19922;-85
2022/10/30 00:22:53;;;;;;;;;;;18.50;63.80;;;;;;4943354;29;19927;-87
2022/10/30 00:25:18;;;;;;;;;;;18.60;62.70;;;;;;4945889;28;19918;-87
2022/10/30 00:27:44;;;;;;;;;;;18.60;63.00;;;;;;4958739;28;19925;-87
2022/10/30 00:30:14;;;;;;;;;;;18.60;63.10;;;;;;4944751;28;19922;-87
2022/10/30 00:32:40;;;;;;;;;;;18.70;62.20;;;;;;4944133;28;19996;-87
2022/10/30 00:35:05;;;;;;;;;;;18.80;62.00;;;;;;4947669;28;19985;-88
2022/10/30 00:37:31;;;;;;;;;;;18.70;63.20;;;;;;4948495;28;20389;-87
2022/10/30 00:39:56;;;;;;;;;;;18.60;63.60;;;;;;4953587;28;19981;-87
2022/10/30 00:42:21;;;;;;;;;;;18.50;64.00;;;;;;4961690;28;19914;-87
2022/10/30 00:44:48;;;;;;;;;;;18.50;63.70;;;;;;4952081;28;20451;-87
2022/10/30 00:47:17;;;;;;;;;;;18.50;64.30;;;;;;4946422;28;20567;-87
2022/10/30 00:49:48;;;;;;;;;;;18.50;63.20;;;;;;4950557;28;19945;-88
2022/10/30 00:52:13;;;;;;;;;;;18.40;64.90;;;;;;4945276;28;19914;-87
2022/10/30 00:54:39;;;;;;;;;;;18.50;63.60;;;;;;4944788;28;20460;-87
2022/10/30 00:57:08;;;;;;;;;;;18.40;63.60;;;;;;4943919;28;20014;-87
2022/10/30 00:59:38;;;;;;;;;;;18.40;63.60;;;;;;4960241;28;19914;-88
2022/10/30 01:02:07;;;;;;;;;;;18.40;63.90;;;;;;4946595;28;22134;-88
2022/10/30 01:04:36;;;;;;;;;;;18.40;63.60;;;;;;4948250;28;19998;-88
2022/10/30 01:07:08;;;;;;;;;;;18.40;64.30;;;;;;4944608;28;19929;-88
2022/10/30 01:09:34;;;;;;;;;;;18.30;65.10;;;;;;4948215;28;19926;-88
2022/10/30 01:11:59;;;;;;;;;;;18.20;65.40;;;;;;4941164;28;19914;-87
2022/10/30 01:14:33;;;;;;;;;;;18.20;66.60;;;;;;4942906;28;19922;-87
2022/10/30 01:17:01;;;;;;;;;;;18.10;66.90;;;;;;4947400;28;20005;-87
2022/10/30 01:19:26;;;;;;;;;;;18.00;67.30;;;;;;4946478;28;19922;-87
2022/10/30 01:22:11;;;;;;;;;;;17.90;68.70;;;;;;4945173;28;19922;-88
2022/10/30 01:24:46;;;;;;;;;;;17.90;68.40;;;;;;4958298;28;20009;-87
2022/10/30 01:27:32;;;;;;;;;;;17.80;69.20;;;;;;4946309;28;19922;-88
2022/10/30 01:30:09;;;;;;;;;;;17.70;69.50;;;;;;4944603;28;19918;-87
2022/10/30 01:32:38;;;;;;;;;;;17.60;69.40;;;;;;4942739;28;20315;-88
2022/10/30 01:35:12;;;;;;;;;;;17.60;70.10;;;;;;4945457;28;19925;-88
2022/10/30 01:37:58;;;;;;;;;;;17.50;70.70;;;;;;4943864;28;20396;-87
2022/10/30 01:40:23;;;;;;;;;;;17.40;71.20;;;;;;4943845;28;19926;-87
2022/10/30 01:42:49;;;;;;;;;;;17.40;70.10;;;;;;4953782;28;19941;-87
2022/10/30 01:45:17;;;;;;;;;;;17.30;70.00;;;;;;4946170;28;19918;-87
2022/10/30 01:47:56;;;;;;;;;;;17.20;70.60;;;;;;4946417;29;19978;-87
2022/10/30 01:50:27;;;;;;;;;;;17.10;71.00;;;;;;4946593;28;19918;-87
2022/10/30 01:53:08;;;;;;;;;;;17.10;71.30;;;;;;4945324;29;19915;-88
2022/10/30 01:55:49;;;;;;;;;;;17.10;71.30;;;;;;4958871;28;19922;-87
2022/10/30 01:58:21;;;;;;;;;;;17.10;71.60;;;;;;4956888;28;19918;-88
2022/10/30 02:00:48;;;;;;;;;;;17.10;72.00;;;;;;4946533;28;20336;-88
2022/10/30 02:03:13;;;;;;;;;;;17.00;72.00;;;;;;4946253;28;20279;-88
2022/10/30 02:05:47;;;;;;;;;;;17.00;72.10;;;;;;4943818;29;19921;-88
2022/10/30 02:10:46;;;;;;;;;;;16.90;73.00;;;;;;4969016;28;21471;-76
2022/10/30 02:13:12;;;;;;;;;;;16.90;73.10;;;;;;4967829;28;19922;-76
2022/10/30 02:15:38;;;;;;;;;;;16.90;73.20;;;;;;4966941;28;19933;-77
2022/10/30 02:18:03;;;;;;;;;;;16.90;72.90;;;;;;4971884;28;19942;-78
2022/10/30 02:20:29;;;;;;;;;;;16.90;73.50;;;;;;4970120;28;19925;-76
2022/10/30 02:22:55;;;;;;;;;;;16.90;73.70;;;;;;4964683;28;19922;-75
2022/10/30 02:25:21;;;;;;;;;;;16.90;73.70;;;;;;4963238;28;20821;-78
2022/10/30 02:27:46;;;;;;;;;;;16.80;73.30;;;;;;4961654;28;19922;-77
2022/10/30 02:30:12;;;;;;;;;;;16.70;72.90;;;;;;4964754;28;19985;-78
2022/10/30 02:32:37;;;;;;;;;;;16.70;73.90;;;;;;4962159;28;19925;-77
2022/10/30 02:35:03;;;;;;;;;;;16.80;73.20;;;;;;4965939;28;19921;-77
2022/10/30 02:37:28;;;;;;;;;;;16.80;72.80;;;;;;4967902;28;19922;-78
2022/10/30 02:39:54;;;;;;;;;;;16.70;72.60;;;;;;4969277;28;19977;-78
2022/10/30 02:42:19;;;;;;;;;;;16.80;73.60;;;;;;4964278;28;19929;-77
2022/10/30 02:44:44;;;;;;;;;;;16.80;73.30;;;;;;4968603;28;19941;-77
2022/10/30 02:47:10;;;;;;;;;;;16.60;73.40;;;;;;4968690;28;20294;-76
2022/10/30 02:49:35;;;;;;;;;;;16.70;73.50;;;;;;4968951;28;19922;-77
2022/10/30 02:52:01;;;;;;;;;;;16.70;73.60;;;;;;4970548;28;19996;-77
2022/10/30 02:54:26;;;;;;;;;;;16.60;72.70;;;;;;4977577;28;20016;-77
2022/10/30 02:56:52;;;;;;;;;;;16.60;73.50;;;;;;4989489;28;19910;-76
2022/10/30 02:59:18;;;;;;;;;;;16.60;73.80;;;;;;4978266;28;20005;-77
2022/10/30 03:01:43;;;;;;;;;;;16.60;73.80;;;;;;4965615;28;19922;-77
2022/10/30 03:04:09;;;;;;;;;;;16.70;73.60;;;;;;4972118;28;19915;-77
2022/10/30 03:06:34;;;;;;;;;;;16.70;72.50;;;;;;4976167;28;20000;-77
2022/10/30 03:09:00;;;;;;;;;;;16.70;73.00;;;;;;4970068;28;19925;-78
2022/10/30 03:11:25;;;;;;;;;;;16.60;73.00;;;;;;4970277;28;20406;-75
2022/10/30 03:13:51;;;;;;;;;;;16.60;72.50;;;;;;4984968;28;20293;-77
2022/10/30 03:16:20;;;;;;;;;;;16.70;73.00;;;;;;4965806;28;19924;-77
2022/10/30 03:18:46;;;;;;;;;;;16.70;72.40;;;;;;4967911;28;19914;-77
2022/10/30 03:21:13;;;;;;;;;;;16.80;72.70;;;;;;4973752;28;19921;-78
2022/10/30 03:23:39;;;;;;;;;;;16.80;73.20;;;;;;4967677;28;20020;-77
2022/10/30 03:26:04;;;;;;;;;;;16.70;73.40;;;;;;4984194;28;20386;-77
2022/10/30 03:28:30;;;;;;;;;;;16.70;73.20;;;;;;4973720;28;19925;-78
2022/10/30 03:31:00;;;;;;;;;;;16.60;73.30;;;;;;4965696;28;19945;-77
2022/10/30 03:33:25;;;;;;;;;;;16.60;73.10;;;;;;4972265;28;19933;-78
2022/10/30 03:35:51;;;;;;;;;;;16.60;73.70;;;;;;4973125;28;19914;-77
2022/10/30 03:38:16;;;;;;;;;;;16.60;74.10;;;;;;4978148;28;19918;-78
2022/10/30 03:40:42;;;;;;;;;;;16.60;73.70;;;;;;4982567;28;19914;-77
2022/10/30 03:43:07;;;;;;;;;;;16.60;74.20;;;;;;4970481;28;20057;-77
2022/10/30 03:45:33;;;;;;;;;;;16.60;73.90;;;;;;4969919;28;20384;-78
2022/10/30 03:48:02;;;;;;;;;;;16.50;74.60;;;;;;4967907;28;20412;-78
2022/10/30 03:50:28;;;;;;;;;;;16.50;74.10;;;;;;4971280;28;19953;-77
2022/10/30 03:52:54;;;;;;;;;;;16.50;74.30;;;;;;4965404;28;19950;-77
2022/10/30 03:55:19;;;;;;;;;;;16.60;74.10;;;;;;4971441;28;20267;-77
2022/10/30 03:57:45;;;;;;;;;;;16.60;73.90;;;;;;4968454;28;19921;-77
2022/10/30 04:00:11;;;;;;;;;;;16.70;73.80;;;;;;4975006;28;19922;-78
2022/10/30 04:02:36;;;;;;;;;;;16.70;73.20;;;;;;4969951;28;19914;-77
2022/10/30 04:05:01;;;;;;;;;;;16.60;72.80;;;;;;4981173;28;20295;-78
2022/10/30 04:07:28;;;;;;;;;;;16.60;72.90;;;;;;4986681;28;20312;-78
2022/10/30 04:09:53;;;;;;;;;;;16.60;74.20;;;;;;4976597;28;19918;-78
2022/10/30 04:12:19;;;;;;;;;;;16.50;73.10;;;;;;4974688;28;20437;-78
2022/10/30 04:14:44;;;;;;;;;;;16.50;73.70;;;;;;4965639;28;19914;-77
2022/10/30 04:17:10;;;;;;;;;;;16.50;73.70;;;;;;4973023;28;20030;-78
2022/10/30 04:19:35;;;;;;;;;;;16.50;73.90;;;;;;4973401;28;19914;-77
2022/10/30 04:22:01;;;;;;;;;;;16.50;73.90;;;;;;4969991;28;19922;-76
2022/10/30 04:24:26;;;;;;;;;;;16.50;74.20;;;;;;4966073;28;19974;-76
2022/10/30 04:26:52;;;;;;;;;;;16.40;74.10;;;;;;4971741;28;19942;-78
2022/10/30 04:29:17;;;;;;;;;;;16.40;74.40;;;;;;4972782;28;19918;-78
2022/10/30 04:31:42;;;;;;;;;;;16.40;74.70;;;;;;4968911;28;20392;-78
2022/10/30 04:34:08;;;;;;;;;;;16.30;74.80;;;;;;4969978;28;20381;-78
2022/10/30 04:36:33;;;;;;;;;;;16.30;74.30;;;;;;4974502;28;20429;-78
2022/10/30 04:38:59;;;;;;;;;;;16.30;73.80;;;;;;4976000;28;19914;-77
2022/10/30 04:41:24;;;;;;;;;;;16.20;74.80;;;;;;4967281;28;20000;-78
2022/10/30 04:43:50;;;;;;;;;;;16.20;74.80;;;;;;4964512;28;19961;-76
2022/10/30 04:46:16;;;;;;;;;;;16.20;74.60;;;;;;4973345;28;19922;-77
2022/10/30 04:48:42;;;;;;;;;;;16.00;75.70;;;;;;4985754;28;20356;-76
2022/10/30 04:51:08;;;;;;;;;;;16.00;75.30;;;;;;4992990;28;20045;-78
2022/10/30 04:53:33;;;;;;;;;;;16.00;75.40;;;;;;4986241;28;19960;-78
2022/10/30 04:55:59;;;;;;;;;;;16.00;75.80;;;;;;4976323;28;19914;-78
2022/10/30 04:58:24;;;;;;;;;;;16.00;75.50;;;;;;4972392;28;19922;-77
2022/10/30 05:00:49;;;;;;;;;;;16.00;75.80;;;;;;4959972;28;19928;-77
2022/10/30 05:03:21;;;;;;;;;;;16.00;75.20;;;;;;4964230;28;19922;-78
2022/10/30 05:05:54;;;;;;;;;;;15.90;75.70;;;;;;4967031;28;19917;-78
2022/10/30 05:08:19;;;;;;;;;;;15.80;75.80;;;;;;4972736;28;19957;-77
2022/10/30 05:10:45;;;;;;;;;;;15.80;76.00;;;;;;4975113;28;19926;-78
2022/10/30 05:13:11;;;;;;;;;;;15.70;76.10;;;;;;4972922;28;19921;-77
2022/10/30 05:15:36;;;;;;;;;;;15.80;76.10;;;;;;4973818;28;19941;-78
2022/10/30 05:18:02;;;;;;;;;;;15.70;76.40;;;;;;4990877;28;19917;-77
2022/10/30 05:20:27;;;;;;;;;;;15.70;76.30;;;;;;4971445;28;20224;-78
2022/10/30 05:22:54;;;;;;;;;;;15.60;76.40;;;;;;4978753;28;19914;-77
2022/10/30 05:25:19;;;;;;;;;;;15.60;76.20;;;;;;4972200;28;19921;-77
2022/10/30 05:27:45;;;;;;;;;;;15.60;76.80;;;;;;4974959;28;19975;-76
2022/10/30 05:30:10;;;;;;;;;;;15.50;77.50;;;;;;4981152;28;19914;-77
2022/10/30 05:32:36;;;;;;;;;;;15.50;77.20;;;;;;4975617;28;19914;-77
2022/10/30 05:35:01;;;;;;;;;;;15.40;77.90;;;;;;4970615;28;19915;-78
2022/10/30 05:37:27;;;;;;;;;;;15.30;77.40;;;;;;4982346;28;19922;-78
2022/10/30 05:39:52;;;;;;;;;;;15.20;77.40;;;;;;4973760;28;20226;-78
2022/10/30 05:42:17;;;;;;;;;;;15.20;77.90;;;;;;4982284;28;19910;-77
2022/10/30 05:44:43;;;;;;;;;;;15.10;77.90;;;;;;4972220;28;19922;-76
2022/10/30 05:47:09;;;;;;;;;;;15.00;78.10;;;;;;4972092;28;20350;-77
2022/10/30 05:49:35;;;;;;;;;;;15.00;78.60;;;;;;4975660;28;19922;-78
2022/10/30 05:52:00;;;;;;;;;;;15.00;79.20;;;;;;4969402;28;20425;-78
2022/10/30 05:54:26;;;;;;;;;;;15.00;79.70;;;;;;4974172;28;19924;-78
2022/10/30 05:56:51;;;;;;;;;;;14.90;79.50;;;;;;4978023;28;19914;-77
2022/10/30 05:59:17;;;;;;;;;;;14.90;78.90;;;;;;4969885;28;19922;-77
2022/10/30 06:01:42;;;;;;;;;;;15.00;78.20;;;;;;4975959;28;19910;-77
2022/10/30 06:04:08;;;;;;;;;;;14.90;78.10;;;;;;4970319;28;19914;-76
2022/10/30 06:06:33;;;;;;;;;;;14.90;78.90;;;;;;4969882;28;20398;-78
2022/10/30 06:08:59;;;;;;;;;;;14.80;79.40;;;;;;4971322;28;20301;-77
2022/10/30 06:11:24;;;;;;;;;;;14.80;79.30;;;;;;4968821;28;20574;-75
2022/10/30 06:13:49;;;;;;;;;;;14.70;79.50;;;;;;4970307;28;19914;-77
2022/10/30 06:16:15;;;;;;;;;;;14.70;79.40;;;;;;4971711;28;19925;-77
2022/10/30 06:18:40;;;;;;;;;;;14.70;79.70;;;;;;4964892;28;19914;-76
2022/10/30 06:21:07;;;;;;;;;;;14.70;80.10;;;;;;4975113;28;19968;-77
2022/10/30 06:23:32;;;;;;;;;;;14.60;80.10;;;;;;4965347;28;19919;-76
2022/10/30 06:25:58;;;;;;;;;;;14.60;79.80;;;;;;4962469;28;19925;-77
2022/10/30 06:28:23;;;;;;;;;;;14.60;79.90;;;;;;4961100;28;20041;-76
2022/10/30 06:30:48;;;;;;;;;;;14.60;79.90;;;;;;4967145;28;19921;-75
2022/10/30 06:33:14;;;;;;;;;;;14.60;80.20;;;;;;4966371;28;19926;-77
2022/10/30 06:35:39;;;;;;;;;;;14.60;79.60;;;;;;4967491;28;21073;-77
2022/10/30 06:38:05;;;;;;;;;;;14.70;79.50;;;;;;4965038;28;19936;-76
2022/10/30 06:40:30;;;;;;;;;;;14.80;80.00;;;;;;4977887;28;20182;-77
2022/10/30 06:42:56;;;;;;;;;;;14.80;80.10;;;;;;4972379;28;19914;-77
2022/10/30 06:45:22;;;;;;;;;;;14.80;79.30;;;;;;4964988;28;20631;-77
2022/10/30 06:47:48;;;;;;;;;;;14.90;79.20;;;;;;4968792;28;19928;-76
2022/10/30 06:50:17;;;;;;;;;;;15.00;78.90;;;;;;4971388;28;19937;-76
2022/10/30 06:52:43;;;;;;;;;;;15.10;78.20;;;;;;4961300;28;20353;-75
2022/10/30 06:55:09;;;;;;;;;;;15.10;78.30;;;;;;4964450;28;20000;-75
2022/10/30 06:57:34;;;;;;;;;;;15.10;77.80;;;;;;4968286;28;20310;-75
2022/10/30 07:00:00;;;;;;;;;;;15.10;77.20;;;;;;4965708;28;20132;-77
2022/10/30 07:02:26;;;;;;;;;;;15.10;77.70;;;;;;4967770;28;19921;-77
2022/10/30 07:04:51;;;;;;;;;;;15.20;77.00;;;;;;4970119;28;19914;-77
2022/10/30 07:07:17;;;;;;;;;;;15.20;76.90;;;;;;4972466;28;19918;-77
2022/10/30 07:09:43;;;;;;;;;;;15.20;77.00;;;;;;4971921;28;19918;-78
2022/10/30 07:12:08;;;;;;;;;;;15.30;76.60;;;;;;4968077;28;20349;-78
2022/10/30 07:14:34;;;;;;;;;;;15.30;76.50;;;;;;4973770;28;19993;-78
2022/10/30 07:17:00;;;;;;;;;;;15.40;76.50;;;;;;4968666;28;20292;-79
2022/10/30 07:19:25;;;;;;;;;;;15.50;76.50;;;;;;4985349;28;19921;-80
2022/10/30 07:21:51;;;;;;;;;;;15.50;76.20;;;;;;4975558;28;19973;-78
2022/10/30 07:24:16;;;;;;;;;;;15.50;76.30;;;;;;4976972;28;19922;-79
2022/10/30 07:26:42;;;;;;;;;;;15.60;75.90;;;;;;4971253;28;19918;-79
2022/10/30 07:29:07;;;;;;;;;;;15.60;76.20;;;;;;4969130;28;19926;-79
2022/10/30 07:31:33;;;;;;;;;;;15.60;76.60;;;;;;4971150;28;19933;-79
2022/10/30 07:33:58;;;;;;;;;;;15.60;76.70;;;;;;4972274;28;19914;-80
2022/10/30 07:36:24;;;;;;;;;;;15.60;76.80;;;;;;4968180;28;19926;-79
2022/10/30 07:38:50;;;;;;;;;;;15.70;76.60;;;;;;4969422;28;19918;-79
2022/10/30 07:41:19;;;;;;;;;;;15.70;76.90;;;;;;4967320;28;19923;-79
2022/10/30 07:43:44;;;;;;;;;;;15.80;77.50;;;;;;4964626;28;19921;-79
2022/10/30 07:46:10;;;;;;;;;;;15.70;77.30;;;;;;4966712;28;19914;-79
2022/10/30 07:48:36;;;;;;;;;;;15.70;77.40;;;;;;4966320;28;19925;-78
2022/10/30 07:51:01;;;;;;;;;;;15.80;77.10;;;;;;4968729;28;20013;-78
2022/10/30 07:53:27;;;;;;;;;;;15.80;77.30;;;;;;4965627;28;19914;-78
2022/10/30 07:55:52;;;;;;;;;;;15.80;77.10;;;;;;4963270;28;20263;-79
2022/10/30 07:58:18;;;;;;;;;;;15.80;77.50;;;;;;4971768;28;20098;-78
2022/10/30 08:00:43;;;;;;;;;;;15.90;77.70;;;;;;4966242;28;20286;-78
2022/10/30 08:03:09;;;;;;;;;;;15.90;77.10;;;;;;4962461;28;20182;-78
2022/10/30 08:05:35;;;;;;;;;;;16.00;77.00;;;;;;4962186;28;19914;-78
2022/10/30 08:08:00;;;;;;;;;;;16.00;76.90;;;;;;4960276;28;19937;-78
2022/10/30 08:10:26;;;;;;;;;;;16.00;76.40;;;;;;4990973;23;19926;-87
2022/10/30 08:12:51;;;;;;;;;;;16.00;76.50;;;;;;4970083;28;19922;-86
2022/10/30 08:15:17;;;;;;;;;;;16.10;76.70;;;;;;4972175;28;20475;-87
2022/10/30 08:17:43;;;;;;;;;;;16.10;77.20;;;;;;4970752;28;19914;-88
2022/10/30 08:20:10;;;;;;;;;;;16.20;76.80;;;;;;4974754;28;19969;-86
2022/10/30 08:22:42;;;;;;;;;;;16.20;76.90;;;;;;4955811;29;19919;-85
2022/10/30 08:25:08;;;;;;;;;;;16.20;77.20;;;;;;4946496;28;20383;-86
2022/10/30 08:27:33;;;;;;;;;;;16.40;76.00;;;;;;4961309;28;19914;-86
2022/10/30 08:29:58;;;;;;;;;;;16.50;75.00;;;;;;4970574;28;19950;-86
2022/10/30 08:32:24;;;;;;;;;;;16.50;75.10;;;;;;4949036;28;19965;-85
2022/10/30 08:34:49;;;;;;;;;;;16.70;74.60;;;;;;4947292;28;19914;-85
2022/10/30 08:37:16;;;;;;;;;;;16.70;74.70;;;;;;4948245;29;19985;-87
2022/10/30 08:39:41;;;;;;;;;;;16.80;74.40;;;;;;4946828;28;20019;-85
2022/10/30 08:42:07;;;;;;;;;;;16.80;74.40;;;;;;4953015;29;19945;-85
2022/10/30 08:44:32;;;;;;;;;;;16.80;74.70;;;;;;4953112;28;19915;-86
2022/10/30 08:46:58;;;;;;;;;;;17.00;73.70;;;;;;4947150;28;19922;-87
2022/10/30 08:49:23;;;;;;;;;;;17.10;73.20;;;;;;4964615;28;19926;-86
2022/10/30 08:51:49;;;;;;;;;;;17.10;73.30;;;;;;4950409;29;19923;-87
2022/10/30 08:54:14;;;;;;;;;;;17.20;72.90;;;;;;4945578;28;20013;-87
2022/10/30 08:56:40;;;;;;;;;;;17.20;72.70;;;;;;4951507;28;20447;-87
2022/10/30 08:59:05;;;;;;;;;;;17.30;72.40;;;;;;4947375;28;19915;-86
2022/10/30 09:01:30;;;;;;;;;;;17.40;72.40;;;;;;4952766;29;19914;-85
2022/10/30 09:03:56;;;;;;;;;;;17.50;72.30;;;;;;4948900;28;19923;-85
2022/10/30 09:06:21;;;;;;;;;;;17.50;71.90;;;;;;4949316;28;19914;-87
2022/10/30 09:08:47;;;;;;;;;;;17.80;71.20;;;;;;4951266;28;20028;-86
2022/10/30 09:11:12;;;;;;;;;;;17.80;71.20;;;;;;4957802;28;20005;-86
2022/10/30 09:13:38;;;;;;;;;;;17.80;71.10;;;;;;4947276;28;19915;-85
2022/10/30 09:16:04;;;;;;;;;;;17.90;70.50;;;;;;4952152;28;19922;-87
2022/10/30 09:18:29;;;;;;;;;;;17.90;70.50;;;;;;4968376;28;19965;-87
2022/10/30 09:20:55;;;;;;;;;;;18.10;70.00;;;;;;4955996;28;19921;-86
2022/10/30 09:23:20;;;;;;;;;;;18.00;70.70;;;;;;4950702;28;19947;-87
2022/10/30 09:25:48;;;;;;;;;;;18.00;70.70;;;;;;4950877;28;19915;-89
2022/10/30 09:28:14;;;;;;;;;;;18.00;70.90;;;;;;4948924;28;20340;-87
2022/10/30 09:30:39;;;;;;;;;;;18.10;69.90;;;;;;4966929;28;19929;-87
2022/10/30 09:33:07;;;;;;;;;;;18.10;70.20;;;;;;4954901;28;19921;-86
2022/10/30 09:35:33;;;;;;;;;;;18.20;69.10;;;;;;4955573;28;20249;-87
2022/10/30 09:37:58;;;;;;;;;;;18.30;68.80;;;;;;4966296;28;19915;-86
2022/10/30 09:40:30;;;;;;;;;;;18.50;68.50;;;;;;4958648;28;19914;-86
2022/10/30 09:43:00;;;;;;;;;;;18.50;67.90;;;;;;4955561;28;20435;-87
2022/10/30 09:45:47;;;;;;;;;;;18.60;67.50;;;;;;4957441;28;19965;-88
2022/10/30 09:48:22;;;;;;;;;;;18.60;67.70;;;;;;4961159;28;19915;-85
2022/10/30 09:50:59;;;;;;;;;;;18.80;67.30;;;;;;4953009;28;19926;-87
2022/10/30 09:53:32;;;;;;;;;;;18.80;66.80;;;;;;4951881;28;20581;-87
2022/10/30 09:56:07;;;;;;;;;;;18.90;67.10;;;;;;4950792;28;19922;-86
2022/10/30 09:59:02;;;;;;;;;;;18.80;67.10;;;;;;4967658;28;19915;-86
2022/10/30 10:01:38;;;;;;;;;;;18.90;66.60;;;;;;4950330;29;20303;-87
2022/10/30 10:04:24;;;;;;;;;;;18.90;67.10;;;;;;4957051;28;19914;-87
2022/10/30 10:06:53;;;;;;;;;;;19.00;66.70;;;;;;4962594;28;19949;-86
2022/10/30 10:09:20;;;;;;;;;;;19.20;64.80;;;;;;4971829;28;20052;-86
2022/10/30 10:11:51;;;;;;;;;;;19.30;65.40;;;;;;4956648;28;19921;-85
2022/10/30 10:14:19;;;;;;;;;;;19.40;65.60;;;;;;4957800;28;19919;-86
2022/10/30 10:16:48;;;;;;;;;;;19.40;65.40;;;;;;4969700;28;20380;-85
2022/10/30 10:19:33;;;;;;;;;;;19.30;66.00;;;;;;4958345;28;20396;-85
2022/10/30 10:22:00;;;;;;;;;;;19.20;66.70;;;;;;4953484;29;19961;-86
2022/10/30 10:24:29;;;;;;;;;;;19.40;66.20;;;;;;4956883;29;19923;-86
2022/10/30 10:26:58;;;;;;;;;;;19.50;66.50;;;;;;4958094;28;19914;-86
2022/10/30 10:29:41;;;;;;;;;;;19.40;66.90;;;;;;4972370;28;19918;-87
2022/10/30 10:32:12;;;;;;;;;;;19.30;66.50;;;;;;4983335;28;19921;-86
2022/10/30 10:34:51;;;;;;;;;;;19.40;67.20;;;;;;4955205;28;19918;-86
2022/10/30 10:37:32;;;;;;;;;;;19.60;66.10;;;;;;4954308;29;20013;-86
2022/10/30 10:40:15;;;;;;;;;;;19.70;65.50;;;;;;4955720;28;19919;-86
2022/10/30 10:42:55;;;;;;;;;;;19.70;66.50;;;;;;4957109;28;20372;-86
2022/10/30 10:45:26;;;;;;;;;;;19.60;66.20;;;;;;4970656;28;19918;-86
2022/10/30 10:48:01;;;;;;;;;;;19.60;66.40;;;;;;4966017;28;20372;-86
2022/10/30 10:50:31;;;;;;;;;;;19.70;66.40;;;;;;4956707;28;19910;-87
2022/10/30 10:52:57;;;;;;;;;;;19.80;65.40;;;;;;4956750;28;20287;-86
2022/10/30 10:55:35;;;;;;;;;;;19.80;66.30;;;;;;4955231;28;20415;-87
2022/10/30 10:58:09;;;;;;;;;;;20.00;64.40;;;;;;4960252;28;20295;-86
2022/10/30 11:00:34;;;;;;;;;;;20.00;64.70;;;;;;4956445;28;19911;-87
2022/10/30 11:03:11;;;;;;;;;;;19.90;66.10;;;;;;4966610;28;19922;-87
2022/10/30 11:05:41;;;;;;;;;;;20.00;63.90;;;;;;4955903;28;19954;-87
2022/10/30 11:08:10;;;;;;;;;;;20.10;63.90;;;;;;4971951;28;19922;-86
2022/10/30 11:10:38;;;;;;;;;;;20.10;63.80;;;;;;4963038;28;19927;-85
2022/10/30 11:13:04;;;;;;;;;;;20.20;63.80;;;;;;4967626;28;19938;-86
2022/10/30 11:15:40;;;;;;;;;;;20.20;63.20;;;;;;4955784;28;19915;-86
2022/10/30 11:18:10;;;;;;;;;;;20.40;62.40;;;;;;4960011;28;19914;-86
2022/10/30 11:20:39;;;;;;;;;;;20.30;63.30;;;;;;4961189;28;19914;-86
2022/10/30 11:23:24;;;;;;;;;;;20.40;62.70;;;;;;4963629;28;19921;-86
2022/10/30 11:25:50;;;;;;;;;;;20.50;62.10;;;;;;4958063;28;20349;-87
2022/10/30 11:28:33;;;;;;;;;;;20.50;62.40;;;;;;4959994;28;19930;-87
2022/10/30 11:31:17;;;;;;;;;;;20.50;62.70;;;;;;4968961;28;19911;-86
2022/10/30 11:33:43;;;;;;;;;;;20.60;62.60;;;;;;4960743;28;19918;-86
2022/10/30 11:36:09;;;;;;;;;;;20.60;62.40;;;;;;4952196;29;20277;-86
2022/10/30 11:38:34;;;;;;;;;;;20.60;62.40;;;;;;4961652;28;19932;-86
2022/10/30 11:41:01;;;;;;;;;;;20.70;61.60;;;;;;4948568;28;19911;-86
2022/10/30 11:43:28;;;;;;;;;;;20.80;61.60;;;;;;4948856;28;19926;-86
2022/10/30 11:45:54;;;;;;;;;;;20.80;61.10;;;;;;4961040;28;19918;-86
2022/10/30 11:48:27;;;;;;;;;;;20.80;61.50;;;;;;4957986;28;19925;-87
2022/10/30 11:50:55;;;;;;;;;;;20.80;61.80;;;;;;4954615;28;20019;-83
2022/10/30 11:53:29;;;;;;;;;;;20.80;61.50;;;;;;4945623;28;19938;-86
2022/10/30 11:55:56;;;;;;;;;;;20.80;61.20;;;;;;4952990;28;19933;-84
2022/10/30 11:58:21;;;;;;;;;;;21.00;60.60;;;;;;4957641;28;19925;-85
2022/10/30 12:00:56;;;;;;;;;;;21.10;60.30;;;;;;4948216;28;19918;-85
2022/10/30 12:03:27;;;;;;;;;;;21.20;59.00;;;;;;4946584;29;19977;-85
2022/10/30 12:06:05;;;;;;;;;;;21.10;60.60;;;;;;4947418;29;19925;-84
2022/10/30 12:08:31;;;;;;;;;;;21.10;59.50;;;;;;4952799;28;19923;-85
2022/10/30 12:10:58;;;;;;;;;;;21.10;57.90;;;;;;4960241;28;20120;-86
2022/10/30 12:13:25;;;;;;;;;;;21.20;57.70;;;;;;4960222;28;20006;-86
2022/10/30 12:16:02;;;;;;;;;;;21.30;57.20;;;;;;4958747;28;20273;-86
2022/10/30 12:18:29;;;;;;;;;;;21.30;57.80;;;;;;4960985;28;20310;-86
2022/10/30 12:20:58;;;;;;;;;;;21.40;57.90;;;;;;4956709;28;19990;-85
2022/10/30 12:23:25;;;;;;;;;;;21.50;57.30;;;;;;4963575;28;20696;-85
2022/10/30 12:25:51;;;;;;;;;;;21.40;57.40;;;;;;4960792;28;19911;-85
2022/10/30 12:28:20;;;;;;;;;;;21.40;57.20;;;;;;4975546;28;19922;-85
2022/10/30 12:30:53;;;;;;;;;;;21.20;58.50;;;;;;4960730;28;19954;-85
2022/10/30 12:33:30;;;;;;;;;;;21.30;58.70;;;;;;4958307;28;20376;-85
2022/10/30 12:35:57;;;;;;;;;;;21.50;56.60;;;;;;4958170;28;19914;-85
2022/10/30 12:38:35;;;;;;;;;;;21.50;57.10;;;;;;4954731;28;19994;-86
2022/10/30 12:41:13;;;;;;;;;;;21.40;56.90;;;;;;4947187;28;20594;-86
2022/10/30 12:43:40;;;;;;;;;;;21.50;57.10;;;;;;4972017;28;19945;-85
2022/10/30 12:46:19;;;;;;;;;;;21.50;56.20;;;;;;5065008;28;19921;-81
2022/10/30 12:48:59;;;;;;;;;;;21.50;57.10;;;;;;5063698;28;19952;-82
2022/10/30 12:51:35;;;;;;;;;;;21.50;56.10;;;;;;5068548;28;19920;-82
2022/10/30 12:54:04;;;;;;;;;;;21.50;56.30;;;;;;5056294;28;19921;-81
2022/10/30 12:56:32;;;;;;;;;;;21.50;57.80;;;;;;5057650;28;19916;-81
2022/10/30 12:59:22;;;;;;;;;;;21.40;56.80;;;;;;5055690;28;19913;-82
2022/10/30 13:01:50;;;;;;;;;;;21.50;56.60;;;;;;5056725;28;19971;-81
2022/10/30 13:04:27;;;;;;;;;;;21.50;56.60;;;;;;5053739;28;21010;-81
2022/10/30 13:06:58;;;;;;;;;;;21.40;56.80;;;;;;5061095;28;20007;-82
2022/10/30 13:09:26;;;;;;;;;;;21.50;57.00;;;;;;5063149;28;19978;-82
2022/10/30 13:12:01;;;;;;;;;;;21.40;57.10;;;;;;5061945;28;19913;-82
2022/10/30 13:14:33;;;;;;;;;;;21.50;58.10;;;;;;5061510;28;19920;-82
2022/10/30 13:16:59;;;;;;;;;;;21.50;57.30;;;;;;5065759;28;20246;-83
2022/10/30 13:19:25;;;;;;;;;;;21.60;57.10;;;;;;5063587;28;19928;-82
2022/10/30 13:21:51;;;;;;;;;;;21.60;57.00;;;;;;5068069;28;19935;-82
2022/10/30 13:24:36;;;;;;;;;;;21.60;57.30;;;;;;5069361;28;19916;-82
2022/10/30 13:27:05;;;;;;;;;;;21.60;58.20;;;;;;5072252;28;19921;-82
2022/10/30 13:29:36;;;;;;;;;;;21.50;58.20;;;;;;5071731;28;19913;-81
2022/10/30 13:32:01;;;;;;;;;;;21.50;59.00;;;;;;5063153;28;20275;-82
2022/10/30 13:34:30;;;;;;;;;;;21.60;57.60;;;;;;5066319;28;19948;-82
2022/10/30 13:37:10;;;;;;;;;;;21.60;57.50;;;;;;5064855;28;20439;-82
2022/10/30 13:39:50;;;;;;;;;;;21.70;56.90;;;;;;5072093;28;19951;-83
2022/10/30 13:42:34;;;;;;;;;;;21.80;56.80;;;;;;5068976;28;19920;-82
2022/10/30 13:45:23;;;;;;;;;;;21.70;57.00;;;;;;5069123;28;19917;-82
2022/10/30 13:48:01;;;;;;;;;;;21.70;57.50;;;;;;5066495;28;19912;-83
2022/10/30 13:50:36;;;;;;;;;;;21.70;56.50;;;;;;5067111;28;19912;-82
2022/10/30 13:53:15;;;;;;;;;;;21.80;56.90;;;;;;5068718;28;19936;-82
2022/10/30 13:55:42;;;;;;;;;;;21.80;56.50;;;;;;5065364;28;19920;-82
2022/10/30 13:58:22;;;;;;;;;;;21.80;56.90;;;;;;5048129;28;19917;-82
2022/10/30 14:01:23;;;;;;;;;;;21.60;57.30;;;;;;5054245;28;19932;-82
2022/10/30 14:03:55;;;;;;;;;;;21.60;56.90;;;;;;5034951;28;19921;-81
2022/10/30 14:06:32;;;;;;;;;;;21.60;57.00;;;;;;5057278;28;19916;-82
2022/10/30 14:09:10;;;;;;;;;;;21.60;56.40;;;;;;5054997;28;19920;-82
2022/10/30 14:11:35;;;;;;;;;;;21.60;57.00;;;;;;5065468;23;20020;-87
2022/10/30 14:14:20;;;;;;;;;;;21.50;56.80;;;;;;5030745;28;20077;-85
2022/10/30 14:17:02;;;;;;;;;;;21.40;58.10;;;;;;5067563;28;19919;-84
2022/10/30 14:19:28;;;;;;;;;;;21.30;58.80;;;;;;5051777;28;19940;-84
2022/10/30 14:21:54;;;;;;;;;;;21.30;59.70;;;;;;5079349;28;19923;-85
2022/10/30 14:24:25;;;;;;;;;;;21.20;60.20;;;;;;5074957;28;19978;-86
2022/10/30 14:26:53;;;;;;;;;;;21.10;59.90;;;;;;5075025;28;19974;-85